Time;durP1;ratioP1;P1;durP2;ratioP2;P2;SDS_P1;SDS_P2;PMS_P1;PMS_P2;Temp;Humidity;BMP_temperature;BMP_pressure;BME280_temperature;BME280_humidity;BME280_pressure;Samples;Min_cycle;Max_cycle;Signal;HPM_P1;HPM_P2
2023/10/22 00:00:07;;;;;;;2.17;0.52;;;16.10;85.70;;;;;;5052291;28;20032;-70
2023/10/22 00:02:35;;;;;;;1.13;1.00;;;16.10;86.40;;;;;;5072607;28;20381;-69
2023/10/22 00:05:03;;;;;;;0.20;0.20;;;16.10;86.50;;;;;;5071852;28;20066;-69
2023/10/22 00:07:29;;;;;;;0.47;0.47;;;16.10;86.70;;;;;;5072040;28;20037;-69
2023/10/22 00:09:55;;;;;;;0.50;0.50;;;16.10;86.80;;;;;;5073506;28;20063;-69
2023/10/22 00:12:21;;;;;;;1.45;0.47;;;16.20;86.40;;;;;;5052446;28;20090;-69
2023/10/22 00:14:47;;;;;;;;;;;16.20;86.10;;;;;;5053973;28;20043;-69
2023/10/22 00:17:13;;;;;;;0.20;0.20;;;16.30;86.70;;;;;;5051869;28;20381;-69
2023/10/22 00:19:40;;;;;;;1.13;0.68;;;16.20;85.00;;;;;;5052181;28;20037;-69
2023/10/22 00:22:06;;;;;;;1.10;0.63;;;16.20;85.70;;;;;;5068222;28;20041;-69
2023/10/22 00:24:32;;;;;;;0.03;0.03;;;16.20;87.00;;;;;;5073160;28;20032;-69
2023/10/22 00:27:00;;;;;;;;;;;16.10;86.70;;;;;;5073579;28;20049;-69
2023/10/22 00:29:27;;;;;;;0.17;0.17;;;16.10;86.70;;;;;;5073282;28;19941;-69
2023/10/22 00:31:53;;;;;;;0.45;0.45;;;16.10;86.70;;;;;;5057306;28;20037;-69
2023/10/22 00:34:19;;;;;;;0.20;0.20;;;16.10;87.10;;;;;;5051896;28;20033;-69
2023/10/22 00:36:45;;;;;;;1.00;0.68;;;16.00;87.20;;;;;;5051124;28;20055;-69
2023/10/22 00:39:11;;;;;;;3.30;0.65;;;16.00;87.40;;;;;;5053263;28;20506;-69
2023/10/22 00:41:37;;;;;;;0.65;0.22;;;16.00;87.50;;;;;;5065260;28;20044;-69
2023/10/22 00:44:03;;;;;;;0.25;0.22;;;16.00;87.60;;;;;;5071681;28;20032;-69
2023/10/22 00:46:29;;;;;;;;;;;16.00;87.80;;;;;;5072728;28;20044;-70
2023/10/22 00:48:55;;;;;;;0.17;0.17;;;15.90;87.30;;;;;;5072605;28;20409;-69
2023/10/22 00:51:22;;;;;;;0.10;0.10;;;15.90;87.50;;;;;;5059803;28;20041;-69
2023/10/22 00:53:51;;;;;;;0.25;0.20;;;15.90;88.20;;;;;;5051562;28;20037;-69
2023/10/22 00:56:17;;;;;;;0.15;0.15;;;15.90;88.10;;;;;;5050828;28;20489;-68
2023/10/22 00:58:43;;;;;;;;;;;15.90;88.30;;;;;;5052062;28;20025;-69
2023/10/22 01:01:10;;;;;;;0.30;0.30;;;15.90;88.20;;;;;;5061031;28;19924;-69
2023/10/22 01:03:37;;;;;;;0.82;0.55;;;15.90;88.30;;;;;;5072726;28;20032;-69
2023/10/22 01:06:04;;;;;;;0.65;0.40;;;15.90;88.40;;;;;;5054023;28;20044;-69
2023/10/22 01:08:33;;;;;;;0.20;0.20;;;15.90;88.70;;;;;;5054637;28;20485;-70
2023/10/22 01:11:18;;;;;;;0.10;0.10;;;15.90;88.90;;;;;;5063901;28;20133;-69
2023/10/22 01:13:44;;;;;;;0.10;0.10;;;15.90;89.00;;;;;;5052748;28;20028;-69
2023/10/22 01:16:10;;;;;;;1.80;0.47;;;15.90;88.90;;;;;;5051128;28;20040;-69
2023/10/22 01:18:36;;;;;;;0.55;0.52;;;15.90;88.80;;;;;;5051096;28;20040;-69
2023/10/22 01:21:06;;;;;;;0.10;0.10;;;15.90;88.70;;;;;;5058450;28;20479;-69
2023/10/22 01:23:52;;;;;;;0.10;0.10;;;15.90;88.80;;;;;;5071353;28;20036;-69
2023/10/22 01:26:18;;;;;;;1.05;0.95;;;15.90;89.20;;;;;;5070818;28;20055;-69
2023/10/22 01:28:44;;;;;;;0.73;0.52;;;15.90;89.00;;;;;;5054123;28;20086;-69
2023/10/22 01:31:14;;;;;;;0.30;0.10;;;16.00;89.30;;;;;;5060863;28;20045;-69
2023/10/22 01:33:40;;;;;;;4.38;0.20;;;16.00;89.00;;;;;;5051136;28;20071;-69
2023/10/22 01:36:06;;;;;;;0.35;0.32;;;16.00;89.00;;;;;;5050417;28;20470;-69
2023/10/22 01:38:32;;;;;;;0.25;0.20;;;16.00;89.10;;;;;;5052334;28;20114;-69
2023/10/22 01:40:58;;;;;;;0.20;0.15;;;16.00;89.00;;;;;;5049884;28;20049;-69
2023/10/22 01:43:24;;;;;;;0.38;0.22;;;16.00;88.80;;;;;;5034414;28;20048;-69
2023/10/22 01:45:50;;;;;;;0.15;0.15;;;16.00;88.50;;;;;;5051671;28;20051;-69
2023/10/22 01:48:16;;;;;;;1.02;0.93;;;16.00;88.40;;;;;;5051109;28;20029;-69
2023/10/22 01:50:42;;;;;;;1.35;0.70;;;16.00;88.20;;;;;;5056559;28;20386;-68
2023/10/22 01:53:08;;;;;;;0.10;0.10;;;16.00;88.10;;;;;;5072187;28;20114;-69
2023/10/22 01:55:34;;;;;;;;;;;15.90;88.30;;;;;;5070956;28;20079;-69
2023/10/22 01:58:00;;;;;;;5.57;0.60;;;15.90;88.70;;;;;;5071958;28;20335;-69
2023/10/22 02:00:27;;;;;;;0.70;0.52;;;15.80;88.90;;;;;;5066816;28;20611;-69
2023/10/22 02:02:53;;;;;;;0.52;0.47;;;15.80;89.20;;;;;;5051972;28;20037;-69
2023/10/22 02:05:19;;;;;;;0.65;0.17;;;15.70;89.40;;;;;;5051374;28;20076;-69
2023/10/22 02:07:45;;;;;;;0.13;0.13;;;15.70;89.50;;;;;;5033905;28;20037;-69
2023/10/22 02:10:11;;;;;;;15.95;1.75;;;15.60;90.30;;;;;;5052200;28;20517;-69
2023/10/22 02:12:37;;;;;;;0.10;0.10;;;15.60;89.70;;;;;;5070822;28;20029;-69
2023/10/22 02:15:04;;;;;;;0.57;0.20;;;15.60;90.00;;;;;;5071943;28;20036;-70
2023/10/22 02:17:30;;;;;;;0.98;0.57;;;15.50;89.80;;;;;;5070565;28;20024;-69
2023/10/22 02:19:56;;;;;;;2.17;0.90;;;15.50;90.10;;;;;;5071092;28;20489;-69
2023/10/22 02:22:23;;;;;;;0.10;0.10;;;15.50;90.10;;;;;;5052075;28;20056;-69
2023/10/22 02:24:49;;;;;;;0.55;0.40;;;15.50;89.90;;;;;;5052057;28;20034;-69
2023/10/22 02:27:15;;;;;;;0.35;0.17;;;15.40;89.60;;;;;;5051924;28;20033;-69
2023/10/22 02:29:41;;;;;;;0.20;0.20;;;15.40;89.50;;;;;;5054410;28;20086;-69
2023/10/22 02:32:07;;;;;;;1.33;0.40;;;15.40;89.30;;;;;;5070302;28;20036;-69
2023/10/22 02:34:33;;;;;;;0.00;0.00;;;15.40;89.20;;;;;;5075351;28;20534;-69
2023/10/22 02:36:59;;;;;;;0.25;0.25;;;15.40;89.20;;;;;;5073402;28;20121;-69
2023/10/22 02:39:25;;;;;;;0.40;0.40;;;15.30;89.20;;;;;;5075452;28;20037;-69
2023/10/22 02:41:51;;;;;;;0.08;0.08;;;15.30;88.90;;;;;;5059348;28;20045;-69
2023/10/22 02:44:17;;;;;;;0.15;0.15;;;15.30;88.90;;;;;;5055350;28;20429;-69
2023/10/22 02:46:43;;;;;;;0.10;0.10;;;15.30;88.80;;;;;;5053532;28;20048;-69
2023/10/22 02:49:09;;;;;;;0.82;0.73;;;15.30;88.70;;;;;;5055023;28;20080;-69
2023/10/22 02:51:34;;;;;;;0.10;0.10;;;15.20;88.70;;;;;;5066838;28;20056;-69
2023/10/22 02:54:00;;;;;;;0.22;0.17;;;15.20;88.70;;;;;;5073888;28;20032;-69
2023/10/22 02:56:26;;;;;;;0.32;0.22;;;15.20;88.60;;;;;;5074727;28;20114;-69
2023/10/22 02:58:52;;;;;;;0.17;0.17;;;15.20;88.40;;;;;;5073785;28;20051;-69
2023/10/22 03:01:18;;;;;;;0.35;0.10;;;15.20;88.30;;;;;;5063684;28;20041;-69
2023/10/22 03:03:45;;;;;;;0.80;0.52;;;15.10;88.00;;;;;;5054733;28;20025;-69
2023/10/22 03:06:12;;;;;;;0.10;0.10;;;15.10;88.00;;;;;;5053972;28;20041;-69
2023/10/22 03:08:41;;;;;;;2.60;0.38;;;15.20;87.90;;;;;;5054753;28;20068;-69
2023/10/22 03:14:00;;;;;;;0.30;0.28;;;15.10;88.20;;;;;;5073845;28;20027;-69
2023/10/22 03:16:26;;;;;;;0.30;0.30;;;15.10;88.20;;;;;;5072792;28;20029;-69
2023/10/22 03:18:52;;;;;;;0.10;0.10;;;15.00;88.00;;;;;;5074621;28;20040;-69
2023/10/22 03:21:20;;;;;;;0.13;0.13;;;15.00;87.90;;;;;;5063657;28;20045;-69
2023/10/22 03:23:47;;;;;;;0.10;0.10;;;15.00;88.00;;;;;;5054284;28;20048;-69
2023/10/22 03:26:18;;;;;;;1.55;0.65;;;14.90;87.90;;;;;;5052850;28;20041;-69
2023/10/22 03:28:45;;;;;;;2.50;0.20;;;14.90;87.40;;;;;;5054339;28;20082;-69
2023/10/22 03:31:12;;;;;;;0.65;0.55;;;14.90;87.90;;;;;;5045115;28;20036;-69
2023/10/22 03:33:38;;;;;;;0.28;0.28;;;14.90;87.90;;;;;;5073014;28;20024;-69
2023/10/22 03:36:05;;;;;;;;;;;14.90;87.40;;;;;;5073986;28;20044;-69
2023/10/22 03:38:32;;;;;;;0.10;0.10;;;14.80;87.80;;;;;;5072076;28;19912;-69
2023/10/22 03:40:59;;;;;;;0.10;0.10;;;14.90;87.80;;;;;;5064367;28;20469;-70
2023/10/22 03:43:28;;;;;;;0.20;0.20;;;14.90;87.80;;;;;;5052963;28;20035;-69
2023/10/22 03:45:55;;;;;;;0.10;0.10;;;14.80;87.80;;;;;;5052400;28;20095;-69
2023/10/22 03:48:40;;;;;;;1.40;0.40;;;14.80;87.90;;;;;;5052700;28;20094;-69
2023/10/22 03:51:06;;;;;;;0.15;0.15;;;14.80;88.00;;;;;;5061493;28;20052;-69
2023/10/22 03:53:32;;;;;;;0.43;0.30;;;14.80;88.10;;;;;;5073969;28;20500;-69
2023/10/22 03:55:58;;;;;;;0.10;0.10;;;14.80;88.00;;;;;;5073447;28;20048;-69
2023/10/22 03:58:25;;;;;;;;;;;14.80;88.00;;;;;;5056469;28;20085;-69
2023/10/22 04:00:54;;;;;;;0.20;0.20;;;14.70;87.80;;;;;;5066209;28;20445;-69
2023/10/22 04:03:22;;;;;;;0.40;0.40;;;14.70;87.80;;;;;;5053788;28;20063;-69
2023/10/22 04:05:55;;;;;;;1.45;0.63;;;14.70;88.00;;;;;;5052703;28;20044;-69
2023/10/22 04:08:23;;;;;;;0.10;0.10;;;14.70;88.00;;;;;;5052494;28;20026;-70
2023/10/22 04:10:49;;;;;;;0.85;0.63;;;14.70;88.00;;;;;;5059053;28;20439;-69
2023/10/22 04:13:15;;;;;;;2.55;0.68;;;14.70;87.80;;;;;;5073728;28;20036;-69
2023/10/22 04:15:41;;;;;;;4.35;1.45;;;14.70;88.60;;;;;;5055039;28;20044;-69
2023/10/22 04:18:07;;;;;;;1.08;0.25;;;14.70;87.60;;;;;;5072060;28;20474;-69
2023/10/22 04:20:33;;;;;;;0.30;0.20;;;14.70;87.70;;;;;;5067052;28;20037;-69
2023/10/22 04:22:59;;;;;;;;;;;14.60;87.40;;;;;;5052734;28;20045;-69
2023/10/22 04:25:28;;;;;;;0.10;0.10;;;14.60;87.10;;;;;;5051711;28;20352;-69
2023/10/22 04:27:54;;;;;;;0.10;0.10;;;14.60;86.90;;;;;;5053228;28;20494;-69
2023/10/22 04:30:20;;;;;;;1.65;0.10;;;14.60;86.90;;;;;;5036687;28;20060;-69
2023/10/22 04:32:46;;;;;;;;;;;14.70;87.10;;;;;;5072348;28;20515;-69
2023/10/22 04:35:13;;;;;;;0.10;0.10;;;14.60;86.90;;;;;;5071204;28;19948;-69
2023/10/22 04:37:39;;;;;;;0.00;0.00;;;14.60;86.70;;;;;;5073450;28;20060;-69
2023/10/22 04:40:06;;;;;;;0.20;0.20;;;14.50;86.80;;;;;;5072169;28;20032;-69
2023/10/22 04:42:32;;;;;;;0.25;0.25;;;14.50;86.80;;;;;;5053324;28;20167;-69
2023/10/22 04:44:58;;;;;;;0.30;0.30;;;14.50;87.10;;;;;;5051576;28;20029;-69
2023/10/22 04:47:24;;;;;;;0.28;0.10;;;14.40;87.10;;;;;;5052528;28;20036;-70
2023/10/22 04:49:53;;;;;;;;;;;14.40;87.00;;;;;;5051972;28;20420;-69
2023/10/22 04:52:31;;;;;;;0.10;0.10;;;14.40;86.70;;;;;;5069301;28;20292;-69
2023/10/22 04:55:01;;;;;;;0.55;0.20;;;14.30;87.10;;;;;;5072886;28;20020;-69
2023/10/22 04:57:30;;;;;;;0.15;0.15;;;14.40;87.30;;;;;;5071135;28;20082;-69
2023/10/22 04:59:57;;;;;;;0.85;0.75;;;14.40;87.20;;;;;;5072789;28;20028;-69
2023/10/22 05:02:23;;;;;;;0.20;0.20;;;14.30;87.00;;;;;;5051370;28;20037;-69
2023/10/22 05:04:52;;;;;;;0.57;0.32;;;14.30;87.10;;;;;;5052678;28;20112;-69
2023/10/22 05:07:18;;;;;;;0.10;0.10;;;14.30;87.00;;;;;;5052336;28;20049;-69
2023/10/22 05:09:44;;;;;;;0.10;0.10;;;14.20;86.80;;;;;;5051192;28;20087;-69
2023/10/22 05:12:10;;;;;;;;;;;14.20;87.50;;;;;;5068637;28;20040;-69
2023/10/22 05:14:36;;;;;;;0.40;0.25;;;14.20;86.60;;;;;;5071720;28;19913;-69
2023/10/22 05:17:04;;;;;;;;;;;14.20;86.40;;;;;;5071109;28;20037;-69
2023/10/22 05:19:30;;;;;;;0.77;0.32;;;14.20;86.50;;;;;;5071310;28;19912;-69
2023/10/22 05:21:56;;;;;;;0.25;0.22;;;14.20;86.50;;;;;;5055996;28;20037;-69
2023/10/22 05:24:22;;;;;;;0.88;0.22;;;14.10;86.80;;;;;;5052248;28;20033;-70
2023/10/22 05:26:48;;;;;;;0.45;0.40;;;14.10;86.80;;;;;;5050519;28;20060;-69
2023/10/22 05:29:14;;;;;;;0.75;0.63;;;14.20;86.90;;;;;;5052048;28;20029;-69
2023/10/22 05:31:40;;;;;;;0.20;0.20;;;14.20;86.90;;;;;;5065296;28;20040;-69
2023/10/22 05:34:06;;;;;;;1.85;0.38;;;14.10;87.00;;;;;;5070929;28;20432;-69
2023/10/22 05:36:32;;;;;;;1.17;0.65;;;14.20;87.00;;;;;;5070428;28;20051;-69
2023/10/22 05:39:00;;;;;;;0.20;0.20;;;14.20;87.00;;;;;;5072397;28;20040;-69
2023/10/22 05:41:27;;;;;;;0.47;0.30;;;14.20;87.00;;;;;;5060023;28;20045;-69
2023/10/22 05:43:56;;;;;;;0.13;0.13;;;14.10;86.80;;;;;;5050951;28;20429;-69
2023/10/22 05:46:23;;;;;;;0.40;0.32;;;14.00;86.60;;;;;;5050455;28;20116;-69
2023/10/22 05:48:49;;;;;;;0.20;0.20;;;14.00;86.50;;;;;;5052024;28;20405;-69
2023/10/22 05:51:15;;;;;;;0.10;0.10;;;14.00;86.50;;;;;;5061136;28;20040;-69
2023/10/22 05:53:41;;;;;;;0.40;0.25;;;14.00;86.60;;;;;;5070969;28;20060;-69
2023/10/22 05:56:07;;;;;;;0.43;0.25;;;13.90;86.80;;;;;;5070022;28;20037;-69
2023/10/22 05:58:33;;;;;;;1.10;0.73;;;13.90;86.80;;;;;;5070996;28;20516;-69
2023/10/22 06:00:59;;;;;;;0.30;0.20;;;13.90;86.60;;;;;;5063130;28;20041;-69
2023/10/22 06:03:25;;;;;;;0.20;0.20;;;13.90;86.60;;;;;;5054446;28;20478;-69
2023/10/22 06:05:51;;;;;;;0.10;0.10;;;13.90;86.60;;;;;;5055200;28;20095;-69
2023/10/22 06:08:17;;;;;;;0.38;0.25;;;13.90;86.70;;;;;;5042814;28;20029;-69
2023/10/22 06:13:32;;;;;;;0.73;0.30;;;13.80;86.50;;;;;;5045632;28;20029;-69
2023/10/22 06:15:58;;;;;;;0.20;0.13;;;13.90;86.40;;;;;;5034108;28;20196;-69
2023/10/22 06:18:24;;;;;;;0.15;0.13;;;13.90;86.40;;;;;;5044250;28;20030;-69
2023/10/22 06:20:50;;;;;;;0.10;0.10;;;13.90;86.40;;;;;;5053397;28;20068;-69
2023/10/22 06:23:16;;;;;;;0.10;0.10;;;13.90;86.40;;;;;;5053377;28;20389;-69
2023/10/22 06:25:44;;;;;;;0.55;0.10;;;13.90;86.40;;;;;;5045653;28;20053;-69
2023/10/22 06:28:10;;;;;;;0.43;0.30;;;14.00;85.90;;;;;;5034320;28;20445;-69
2023/10/22 06:30:36;;;;;;;0.15;0.15;;;14.00;86.50;;;;;;5038020;28;20128;-69
2023/10/22 06:33:03;;;;;;;0.10;0.10;;;14.00;86.70;;;;;;5054254;28;20036;-69
2023/10/22 06:35:30;;;;;;;0.22;0.20;;;14.10;87.10;;;;;;5054535;28;20393;-69
2023/10/22 06:37:56;;;;;;;0.10;0.10;;;14.10;87.70;;;;;;5054117;28;20035;-69
2023/10/22 06:40:23;;;;;;;;;;;14.10;88.30;;;;;;5055602;28;20709;-69
2023/10/22 06:42:50;;;;;;;0.15;0.15;;;14.10;88.70;;;;;;5070778;28;19925;-69
2023/10/22 06:45:17;;;;;;;0.35;0.20;;;14.20;89.20;;;;;;5053031;28;20064;-69
2023/10/22 06:47:44;;;;;;;0.30;0.30;;;14.20;89.50;;;;;;5053498;28;20128;-69
2023/10/22 06:50:11;;;;;;;0.63;0.40;;;14.30;90.30;;;;;;5052798;28;20064;-69
2023/10/22 06:52:38;;;;;;;0.10;0.10;;;14.30;90.40;;;;;;5053473;28;20056;-69
2023/10/22 06:55:05;;;;;;;2.53;0.85;;;14.50;90.20;;;;;;5053698;28;20043;-69
2023/10/22 06:57:32;;;;;;;0.73;0.38;;;14.50;90.60;;;;;;5055148;28;20033;-69
2023/10/22 06:59:58;;;;;;;;;;;14.60;90.70;;;;;;5054371;28;20033;-69
2023/10/22 07:02:25;;;;;;;0.35;0.30;;;14.80;90.80;;;;;;5036132;28;19921;-69
2023/10/22 07:05:07;;;;;;;0.20;0.10;;;14.80;90.50;;;;;;5047569;28;20033;-69
2023/10/22 07:07:33;;;;;;;0.10;0.10;;;14.90;90.30;;;;;;5044303;28;20086;-69
2023/10/22 07:09:59;;;;;;;1.58;0.25;;;15.10;90.90;;;;;;5051336;28;20044;-69
2023/10/22 07:12:25;;;;;;;2.47;0.55;;;15.10;90.50;;;;;;5051967;28;20057;-69
2023/10/22 07:14:51;;;;;;;;;;;15.30;90.30;;;;;;5053741;28;20028;-69
2023/10/22 07:17:17;;;;;;;0.17;0.17;;;15.40;90.00;;;;;;5054399;28;20409;-69
2023/10/22 07:19:43;;;;;;;0.10;0.10;;;15.40;89.50;;;;;;5053444;28;20051;-69
2023/10/22 07:22:09;;;;;;;0.38;0.35;;;15.50;89.50;;;;;;5064141;28;20033;-69
2023/10/22 07:24:35;;;;;;;0.10;0.10;;;15.70;89.30;;;;;;5052420;28;20021;-69
2023/10/22 07:27:01;;;;;;;0.20;0.20;;;15.80;89.00;;;;;;5051977;28;20049;-69
2023/10/22 07:29:27;;;;;;;0.10;0.10;;;15.80;88.50;;;;;;5053705;28;20374;-69
2023/10/22 07:31:53;;;;;;;0.10;0.10;;;15.90;88.40;;;;;;5050512;28;20099;-69
2023/10/22 07:34:19;;;;;;;0.10;0.10;;;16.00;88.30;;;;;;5053567;28;20090;-69
2023/10/22 07:36:45;;;;;;;0.17;0.17;;;16.10;88.00;;;;;;5053606;28;20049;-69
2023/10/22 07:39:12;;;;;;;0.03;0.03;;;16.20;87.60;;;;;;5054303;28;20033;-69
2023/10/22 07:41:38;;;;;;;1.35;0.50;;;16.30;87.40;;;;;;5044504;28;20038;-69
2023/10/22 07:44:04;;;;;;;0.00;0.00;;;16.40;86.80;;;;;;5034528;28;20459;-69
2023/10/22 07:46:30;;;;;;;1.33;0.28;;;16.50;86.40;;;;;;5032144;28;20048;-69
2023/10/22 07:48:56;;;;;;;0.10;0.10;;;16.60;86.30;;;;;;5031555;28;20029;-69
2023/10/22 07:51:25;;;;;;;0.10;0.08;;;16.80;86.60;;;;;;5042692;28;20057;-69
2023/10/22 07:53:51;;;;;;;0.52;0.35;;;16.80;86.90;;;;;;5046610;28;20033;-69
2023/10/22 07:56:19;;;;;;;0.10;0.10;;;16.90;87.30;;;;;;5035854;28;20091;-69
2023/10/22 07:58:45;;;;;;;1.38;0.43;;;17.00;86.90;;;;;;5049078;28;20047;-69
2023/10/22 08:01:11;;;;;;;1.25;0.45;;;17.10;86.40;;;;;;5039251;28;20045;-69
2023/10/22 08:03:37;;;;;;;0.10;0.10;;;17.50;86.80;;;;;;5052632;28;20112;-69
2023/10/22 08:06:04;;;;;;;0.28;0.28;;;19.50;79.70;;;;;;5046254;28;20551;-69
2023/10/22 08:08:31;;;;;;;0.32;0.32;;;21.60;69.30;;;;;;5052464;28;20078;-69
2023/10/22 08:11:16;;;;;;;0.45;0.30;;;23.10;61.50;;;;;;5038819;28;20402;-69
2023/10/22 08:13:42;;;;;;;0.10;0.10;;;24.60;58.50;;;;;;5053522;28;20029;-69
2023/10/22 08:16:07;;;;;;;;;;;25.70;54.60;;;;;;5043175;28;20046;-69
2023/10/22 08:18:34;;;;;;;0.08;0.08;;;26.50;52.00;;;;;;5032165;28;19959;-69
2023/10/22 08:21:19;;;;;;;0.30;0.13;;;27.10;46.90;;;;;;5040500;28;20397;-69
2023/10/22 08:23:47;;;;;;;0.10;0.10;;;27.70;45.50;;;;;;5053442;28;20033;-69
2023/10/22 08:26:13;;;;;;;0.47;0.32;;;28.10;41.10;;;;;;5051077;28;20535;-69
2023/10/22 08:28:39;;;;;;;0.10;0.10;;;28.70;40.90;;;;;;5053275;28;20029;-70
2023/10/22 08:31:05;;;;;;;0.30;0.28;;;29.20;39.10;;;;;;5052348;28;20051;-69
2023/10/22 08:33:31;;;;;;;0.38;0.38;;;29.40;36.30;;;;;;5051954;28;20044;-70
2023/10/22 08:36:04;;;;;;;0.10;0.10;;;29.60;36.30;;;;;;5050998;28;20124;-69
2023/10/22 08:38:30;;;;;;;0.10;0.10;;;28.60;37.80;;;;;;5053599;28;20032;-69
2023/10/22 08:40:58;;;;;;;0.17;0.17;;;27.80;38.80;;;;;;5050929;28;20067;-70
2023/10/22 08:43:29;;;;;;;0.35;0.30;;;26.70;39.70;;;;;;5051922;28;20045;-69
2023/10/22 08:45:57;;;;;;;0.30;0.30;;;27.20;40.60;;;;;;5051178;28;20033;-69
2023/10/22 08:48:25;;;;;;;0.40;0.40;;;27.20;39.60;;;;;;5052410;28;20534;-69
2023/10/22 08:50:52;;;;;;;0.10;0.10;;;27.20;39.60;;;;;;5051633;28;20119;-69
2023/10/22 08:53:18;;;;;;;1.73;0.68;;;26.60;40.10;;;;;;5052077;28;20057;-69
2023/10/22 08:55:47;;;;;;;0.43;0.38;;;25.80;42.60;;;;;;5032350;28;20043;-69
2023/10/22 08:58:16;;;;;;;0.50;0.50;;;25.40;44.70;;;;;;5042792;28;20029;-69
2023/10/22 09:01:01;;;;;;;1.08;0.17;;;25.20;45.40;;;;;;5044407;28;20037;-69
2023/10/22 09:03:29;;;;;;;0.10;0.10;;;24.90;46.80;;;;;;5033174;28;20040;-69
2023/10/22 09:05:55;;;;;;;0.15;0.15;;;24.60;47.00;;;;;;5014387;28;20041;-69
2023/10/22 09:08:40;;;;;;;0.30;0.30;;;24.20;47.10;;;;;;5031652;28;20033;-69
2023/10/22 09:11:17;;;;;;;0.10;0.10;;;24.00;47.80;;;;;;5054679;28;20106;-69
2023/10/22 09:13:44;;;;;;;0.30;0.30;;;23.80;48.70;;;;;;5070917;28;20036;-69
2023/10/22 09:16:10;;;;;;;0.22;0.22;;;23.70;49.40;;;;;;5059740;28;20082;-69
2023/10/22 09:18:56;;;;;;;0.10;0.10;;;23.70;49.00;;;;;;5052403;28;20483;-70
2023/10/22 09:21:22;;;;;;;0.10;0.10;;;23.70;50.10;;;;;;5050064;28;20402;-69
2023/10/22 09:24:06;;;;;;;;;;;23.80;49.30;;;;;;5052684;28;20490;-69
2023/10/22 09:26:45;;;;;;;0.22;0.20;;;23.70;48.90;;;;;;5050668;28;19921;-69
2023/10/22 09:29:11;;;;;;;0.13;0.13;;;23.70;49.90;;;;;;5051055;28;20048;-69
2023/10/22 09:31:38;;;;;;;0.10;0.10;;;23.70;50.70;;;;;;5050030;28;20548;-69
2023/10/22 09:34:04;;;;;;;0.22;0.20;;;23.80;50.60;;;;;;5051291;28;20385;-69
2023/10/22 09:36:30;;;;;;;0.20;0.20;;;23.80;51.20;;;;;;5050869;28;20115;-69
2023/10/22 09:38:56;;;;;;;0.20;0.20;;;23.90;50.70;;;;;;5055355;28;20056;-69
2023/10/22 09:41:41;;;;;;;0.10;0.10;;;23.90;51.20;;;;;;5054055;28;20037;-69
2023/10/22 09:44:07;;;;;;;0.85;0.55;;;23.90;51.60;;;;;;5055054;28;20049;-69
2023/10/22 09:46:33;;;;;;;;;;;23.80;50.70;;;;;;5055049;28;20367;-70
2023/10/22 09:49:07;;;;;;;0.22;0.20;;;23.80;49.80;;;;;;5053109;28;20022;-69
2023/10/22 09:51:53;;;;;;;0.20;0.15;;;23.70;51.20;;;;;;5058739;28;20090;-69
2023/10/22 09:54:24;;;;;;;1.35;0.63;;;23.70;50.20;;;;;;5054725;28;20059;-69
2023/10/22 09:57:11;;;;;;;0.20;0.20;;;23.60;51.00;;;;;;5054388;28;20091;-69
2023/10/22 09:59:38;;;;;;;0.10;0.10;;;23.60;51.00;;;;;;5054842;28;20427;-69
2023/10/22 10:02:05;;;;;;;0.30;0.30;;;23.50;49.30;;;;;;5053923;28;20041;-70
2023/10/22 10:07:17;;;;;;;0.47;0.38;;;23.40;51.20;;;;;;5054612;28;20068;-69
2023/10/22 10:09:44;;;;;;;0.10;0.10;;;23.50;50.50;;;;;;5055965;28;20035;-69
2023/10/22 10:12:12;;;;;;;0.13;0.13;;;23.60;50.30;;;;;;5053425;28;20067;-70
2023/10/22 10:14:38;;;;;;;0.52;0.35;;;23.70;51.00;;;;;;5061284;28;20029;-69
2023/10/22 10:17:05;;;;;;;0.10;0.10;;;23.70;51.30;;;;;;5057354;28;20037;-69
2023/10/22 10:19:32;;;;;;;0.25;0.20;;;23.70;52.10;;;;;;5054658;28;20066;-69
2023/10/22 10:21:58;;;;;;;0.10;0.10;;;24.00;51.30;;;;;;5053386;28;20526;-69
2023/10/22 10:24:26;;;;;;;;;;;24.10;50.30;;;;;;5055020;28;20025;-69
2023/10/22 10:27:11;;;;;;;0.10;0.10;;;24.10;49.00;;;;;;5055534;28;19944;-69
2023/10/22 10:29:37;;;;;;;0.20;0.20;;;24.40;49.90;;;;;;5058047;28;20028;-69
2023/10/22 10:32:22;;;;;;;0.43;0.30;;;24.70;48.50;;;;;;5055108;28;20370;-69
2023/10/22 10:34:49;;;;;;;0.22;0.20;;;24.80;45.80;;;;;;5055143;28;20029;-70
2023/10/22 10:37:34;;;;;;;0.10;0.10;;;24.80;47.50;;;;;;5053790;28;20443;-69
2023/10/22 10:40:04;;;;;;;0.10;0.10;;;24.80;47.20;;;;;;5034335;28;20124;-70
2023/10/22 10:42:30;;;;;;;0.10;0.10;;;24.90;46.00;;;;;;5069823;28;20047;-69
2023/10/22 10:44:56;;;;;;;;;;;25.00;46.10;;;;;;5055697;28;20112;-69
2023/10/22 10:47:22;;;;;;;0.20;0.20;;;25.00;46.40;;;;;;5065683;28;20262;-69
2023/10/22 10:50:11;;;;;;;0.10;0.10;;;24.70;46.30;;;;;;5075138;28;20034;-69
2023/10/22 10:52:58;;;;;;;0.35;0.35;;;24.70;47.40;;;;;;5074854;28;20382;-69
2023/10/22 10:55:49;;;;;;;0.20;0.20;;;24.60;47.40;;;;;;5068040;28;20432;-69
2023/10/22 10:58:15;;;;;;;0.13;0.13;;;24.50;48.10;;;;;;5071930;28;20066;-69
2023/10/22 11:00:41;;;;;;;0.32;0.20;;;24.40;48.20;;;;;;5068693;28;20041;-69
2023/10/22 11:03:07;;;;;;;;;;;24.20;48.80;;;;;;5055374;28;20278;-69
2023/10/22 11:05:51;;;;;;;0.22;0.22;;;24.00;49.20;;;;;;5052804;28;20011;-69
2023/10/22 11:08:19;;;;;;;0.15;0.15;;;23.80;49.80;;;;;;5038584;28;20096;-69
2023/10/22 11:10:46;;;;;;;0.10;0.10;;;23.70;49.90;;;;;;5040616;28;20063;-69
2023/10/22 11:13:13;;;;;;;0.90;0.70;;;23.50;50.40;;;;;;5041500;28;20537;-69
2023/10/22 11:15:40;;;;;;;0.10;0.10;;;23.40;50.60;;;;;;5036361;28;20045;-69
2023/10/22 11:18:26;;;;;;;0.10;0.10;;;23.40;51.20;;;;;;5052923;28;20055;-69
2023/10/22 11:21:11;;;;;;;0.30;0.30;;;23.40;51.10;;;;;;5035701;28;20040;-70
2023/10/22 11:23:38;;;;;;;0.65;0.43;;;23.40;51.10;;;;;;5055043;28;20053;-69
2023/10/22 11:26:04;;;;;;;0.28;0.28;;;23.50;51.40;;;;;;5072158;28;20032;-69
2023/10/22 11:28:30;;;;;;;0.13;0.13;;;23.70;50.60;;;;;;5073141;28;20119;-69
2023/10/22 11:30:57;;;;;;;0.20;0.20;;;23.80;50.60;;;;;;5064518;28;20072;-69
2023/10/22 11:33:42;;;;;;;1.00;0.73;;;24.00;50.10;;;;;;5052896;28;20032;-71
2023/10/22 11:36:27;;;;;;;0.25;0.25;;;24.20;48.20;;;;;;5053533;28;20094;-69
2023/10/22 11:38:53;;;;;;;0.73;0.70;;;24.20;47.40;;;;;;5052881;28;20052;-69
2023/10/22 11:41:18;;;;;;;;;;;24.20;47.20;;;;;;5054059;28;20094;-70
2023/10/22 11:43:46;;;;;;;0.40;0.28;;;24.00;47.60;;;;;;5052955;28;19913;-70
2023/10/22 11:46:12;;;;;;;0.30;0.30;;;23.80;48.00;;;;;;5052374;28;20033;-70
2023/10/22 11:48:45;;;;;;;0.30;0.10;;;23.80;48.40;;;;;;5036170;28;20120;-70
2023/10/22 11:51:11;;;;;;;0.35;0.10;;;23.70;48.50;;;;;;5053198;28;20072;-69
2023/10/22 11:53:58;;;;;;;;;;;23.60;48.60;;;;;;5053340;28;20040;-69
2023/10/22 11:56:24;;;;;;;0.55;0.32;;;23.70;48.70;;;;;;5052465;28;19921;-69
2023/10/22 11:58:55;;;;;;;;;;;23.80;48.40;;;;;;5054116;28;20025;-70
2023/10/22 12:01:22;;;;;;;0.70;0.40;;;23.80;48.70;;;;;;5034922;28;19920;-70
2023/10/22 12:03:48;;;;;;;0.13;0.13;;;23.80;48.20;;;;;;5052103;28;20425;-70
2023/10/22 12:06:14;;;;;;;;;;;23.80;48.80;;;;;;5053659;28;20045;-70
2023/10/22 12:08:40;;;;;;;0.13;0.13;;;23.70;48.50;;;;;;5053927;28;19924;-70
2023/10/22 12:11:06;;;;;;;;;;;23.60;48.60;;;;;;5032069;28;20398;-70
2023/10/22 12:13:32;;;;;;;0.30;0.30;;;23.60;48.50;;;;;;5049121;28;20008;-69
2023/10/22 12:15:57;;;;;;;;;;;23.60;48.60;;;;;;5040964;28;20050;-70
2023/10/22 12:18:24;;;;;;;0.20;0.20;;;23.70;49.30;;;;;;5015551;28;19948;-70
2023/10/22 12:20:50;;;;;;;0.28;0.28;;;23.70;48.90;;;;;;5031185;28;20452;-69
2023/10/22 12:23:16;;;;;;;;;;;23.90;48.20;;;;;;5032625;28;20083;-70
2023/10/22 12:25:45;;;;;;;0.10;0.10;;;23.90;48.00;;;;;;5036194;28;19944;-70
2023/10/22 12:28:12;;;;;;;1.20;0.70;;;23.90;47.40;;;;;;5052320;28;20033;-70
2023/10/22 12:30:40;;;;;;;0.63;0.20;;;24.00;47.70;;;;;;5038407;28;20044;-70
2023/10/22 12:33:09;;;;;;;0.10;0.10;;;24.30;46.40;;;;;;5053092;28;20120;-70
2023/10/22 12:35:42;;;;;;;0.10;0.10;;;24.50;45.20;;;;;;5050836;28;20094;-70
2023/10/22 12:38:08;;;;;;;0.20;0.17;;;24.40;45.70;;;;;;5052830;28;20029;-69
2023/10/22 12:40:35;;;;;;;0.30;0.30;;;24.50;46.00;;;;;;5050920;28;20037;-69
2023/10/22 12:43:02;;;;;;;0.20;0.20;;;24.30;45.50;;;;;;5051462;28;20116;-70
2023/10/22 12:45:28;;;;;;;0.15;0.15;;;24.10;46.50;;;;;;5051343;28;20029;-69
2023/10/22 12:47:53;;;;;;;;;;;23.90;47.10;;;;;;5053111;28;20040;-70
2023/10/22 12:50:19;;;;;;;0.20;0.20;;;23.70;47.70;;;;;;5051953;28;19917;-70
2023/10/22 12:52:46;;;;;;;0.10;0.10;;;23.90;47.10;;;;;;5052778;28;20080;-69
2023/10/22 12:55:12;;;;;;;0.10;0.10;;;24.00;47.50;;;;;;5051229;28;20072;-70
2023/10/22 12:57:37;;;;;;;;;;;23.80;47.60;;;;;;5053573;28;20033;-69
2023/10/22 13:00:10;;;;;;;0.15;0.15;;;23.70;48.20;;;;;;5052427;28;19924;-71
2023/10/22 13:02:36;;;;;;;0.80;0.20;;;23.50;48.20;;;;;;5051827;28;20029;-70
2023/10/22 13:05:03;;;;;;;0.52;0.30;;;23.50;48.80;;;;;;5051315;28;20472;-69
2023/10/22 13:07:29;;;;;;;0.10;0.10;;;23.40;48.70;;;;;;5051068;28;20120;-69